sensor_id;sensor_type;location;lat;lon;timestamp;temperature;humidity
14934;DHT22;7560;51.364;12.384;2022-10-23T00:00:40;11.80;99.90
14934;DHT22;7560;51.364;12.384;2022-10-23T00:05:42;11.80;99.90
14934;DHT22;7560;51.364;12.384;2022-10-23T00:10:43;11.90;99.90
14934;DHT22;7560;51.364;12.384;2022-10-23T00:15:45;11.90;99.90
14934;DHT22;7560;51.364;12.384;2022-10-23T00:20:47;12.00;99.90
14934;DHT22;7560;51.364;12.384;2022-10-23T00:25:49;12.00;99.90
14934;DHT22;7560;51.364;12.384;2022-10-23T00:30:51;12.00;99.90
14934;DHT22;7560;51.364;12.384;2022-10-23T00:35:52;12.00;99.90
14934;DHT22;7560;51.364;12.384;2022-10-23T00:40:54;12.00;99.90
14934;DHT22;7560;51.364;12.384;2022-10-23T00:45:56;12.00;99.90
14934;DHT22;7560;51.364;12.384;2022-10-23T00:50:58;11.90;99.90
14934;DHT22;7560;51.364;12.384;2022-10-23T00:56:00;11.90;99.90
14934;DHT22;7560;51.364;12.384;2022-10-23T01:01:19;11.90;99.90
14934;DHT22;7560;51.364;12.384;2022-10-23T01:06:35;11.90;99.90
14934;DHT22;7560;51.364;12.384;2022-10-23T01:11:42;11.90;99.90
14934;DHT22;7560;51.364;12.384;2022-10-23T01:37:50;11.90;99.90
14934;DHT22;7560;51.364;12.384;2022-10-23T01:42:57;11.90;99.90
14934;DHT22;7560;51.364;12.384;2022-10-23T01:48:02;12.00;99.90
14934;DHT22;7560;51.364;12.384;2022-10-23T01:53:04;12.00;99.90
14934;DHT22;7560;51.364;12.384;2022-10-23T01:58:06;12.00;99.90
14934;DHT22;7560;51.364;12.384;2022-10-23T02:03:10;12.00;99.90
14934;DHT22;7560;51.364;12.384;2022-10-23T02:08:13;12.10;99.90
14934;DHT22;7560;51.364;12.384;2022-10-23T02:13:27;12.10;99.90
14934;DHT22;7560;51.364;12.384;2022-10-23T02:18:45;12.10;99.90
14934;DHT22;7560;51.364;12.384;2022-10-23T02:24:04;12.00;99.90
14934;DHT22;7560;51.364;12.384;2022-10-23T02:29:27;12.00;99.90
14934;DHT22;7560;51.364;12.384;2022-10-23T02:34:30;12.00;99.90
14934;DHT22;7560;51.364;12.384;2022-10-23T02:39:32;12.00;99.90
14934;DHT22;7560;51.364;12.384;2022-10-23T02:44:54;12.20;99.90
14934;DHT22;7560;51.364;12.384;2022-10-23T02:55:45;12.30;99.90
14934;DHT22;7560;51.364;12.384;2022-10-23T03:00:53;12.40;99.90
14934;DHT22;7560;51.364;12.384;2022-10-23T03:05:55;12.50;99.90
14934;DHT22;7560;51.364;12.384;2022-10-23T03:10:56;12.40;99.90
14934;DHT22;7560;51.364;12.384;2022-10-23T03:15:58;12.30;99.90
14934;DHT22;7560;51.364;12.384;2022-10-23T03:21:00;12.20;99.90
14934;DHT22;7560;51.364;12.384;2022-10-23T03:26:02;12.00;99.90
14934;DHT22;7560;51.364;12.384;2022-10-23T03:31:03;11.90;99.90
14934;DHT22;7560;51.364;12.384;2022-10-23T03:36:05;11.80;99.90
14934;DHT22;7560;51.364;12.384;2022-10-23T03:41:07;11.70;99.90
14934;DHT22;7560;51.364;12.384;2022-10-23T03:46:09;11.60;99.90
14934;DHT22;7560;51.364;12.384;2022-10-23T03:51:13;11.60;99.90
14934;DHT22;7560;51.364;12.384;2022-10-23T03:56:15;11.50;99.90
14934;DHT22;7560;51.364;12.384;2022-10-23T04:01:17;11.50;99.90
14934;DHT22;7560;51.364;12.384;2022-10-23T04:06:18;11.50;99.90
14934;DHT22;7560;51.364;12.384;2022-10-23T04:11:20;11.40;99.90
14934;DHT22;7560;51.364;12.384;2022-10-23T04:16:22;11.40;99.90
14934;DHT22;7560;51.364;12.384;2022-10-23T04:21:24;11.30;99.90
14934;DHT22;7560;51.364;12.384;2022-10-23T04:26:26;11.30;99.90
14934;DHT22;7560;51.364;12.384;2022-10-23T04:31:28;11.20;99.90
14934;DHT22;7560;51.364;12.384;2022-10-23T04:36:29;11.20;99.90
14934;DHT22;7560;51.364;12.384;2022-10-23T04:41:31;11.20;99.90
14934;DHT22;7560;51.364;12.384;2022-10-23T04:46:33;11.10;99.90
14934;DHT22;7560;51.364;12.384;2022-10-23T04:51:36;11.10;99.90
14934;DHT22;7560;51.364;12.384;2022-10-23T04:56:38;11.10;99.90
14934;DHT22;7560;51.364;12.384;2022-10-23T05:01:40;11.20;99.90
14934;DHT22;7560;51.364;12.384;2022-10-23T05:06:41;11.20;99.90
14934;DHT22;7560;51.364;12.384;2022-10-23T05:11:43;11.20;99.90
14934;DHT22;7560;51.364;12.384;2022-10-23T05:16:58;11.20;99.90
14934;DHT22;7560;51.364;12.384;2022-10-23T05:22:01;11.20;99.90
14934;DHT22;7560;51.364;12.384;2022-10-23T05:27:04;11.20;99.90
14934;DHT22;7560;51.364;12.384;2022-10-23T05:32:07;11.20;99.90
14934;DHT22;7560;51.364;12.384;2022-10-23T05:37:13;11.20;99.90
14934;DHT22;7560;51.364;12.384;2022-10-23T05:42:16;11.20;99.90
14934;DHT22;7560;51.364;12.384;2022-10-23T05:47:17;11.10;99.90
14934;DHT22;7560;51.364;12.384;2022-10-23T05:52:19;11.10;99.90
14934;DHT22;7560;51.364;12.384;2022-10-23T05:57:21;11.20;99.90
14934;DHT22;7560;51.364;12.384;2022-10-23T06:02:23;11.20;99.90
14934;DHT22;7560;51.364;12.384;2022-10-23T06:07:26;11.20;99.90
14934;DHT22;7560;51.364;12.384;2022-10-23T06:12:31;11.20;99.90
14934;DHT22;7560;51.364;12.384;2022-10-23T06:17:33;11.30;99.90
14934;DHT22;7560;51.364;12.384;2022-10-23T06:22:35;11.30;99.90
14934;DHT22;7560;51.364;12.384;2022-10-23T06:27:37;11.40;99.90
14934;DHT22;7560;51.364;12.384;2022-10-23T06:32:38;11.40;99.90
14934;DHT22;7560;51.364;12.384;2022-10-23T06:37:40;11.50;99.90
14934;DHT22;7560;51.364;12.384;2022-10-23T06:42:42;11.60;99.90
14934;DHT22;7560;51.364;12.384;2022-10-23T06:47:44;11.70;99.90
14934;DHT22;7560;51.364;12.384;2022-10-23T06:52:46;11.80;99.90
14934;DHT22;7560;51.364;12.384;2022-10-23T06:57:48;12.00;99.90
14934;DHT22;7560;51.364;12.384;2022-10-23T07:02:50;12.10;99.90
14934;DHT22;7560;51.364;12.384;2022-10-23T07:07:52;12.30;99.90
14934;DHT22;7560;51.364;12.384;2022-10-23T07:12:54;12.50;99.90
14934;DHT22;7560;51.364;12.384;2022-10-23T07:18:01;12.70;99.90
14934;DHT22;7560;51.364;12.384;2022-10-23T07:23:02;12.90;99.90
14934;DHT22;7560;51.364;12.384;2022-10-23T07:28:04;13.10;99.90
14934;DHT22;7560;51.364;12.384;2022-10-23T07:33:06;13.40;99.90
14934;DHT22;7560;51.364;12.384;2022-10-23T07:38:08;13.60;99.90
14934;DHT22;7560;51.364;12.384;2022-10-23T07:43:10;13.70;99.90
14934;DHT22;7560;51.364;12.384;2022-10-23T07:48:11;13.80;99.90
14934;DHT22;7560;51.364;12.384;2022-10-23T07:53:17;13.70;99.90
14934;DHT22;7560;51.364;12.384;2022-10-23T07:58:19;13.60;99.90
14934;DHT22;7560;51.364;12.384;2022-10-23T08:03:21;13.70;99.90
14934;DHT22;7560;51.364;12.384;2022-10-23T08:08:24;13.90;99.90
14934;DHT22;7560;51.364;12.384;2022-10-23T08:13:26;14.20;99.90
14934;DHT22;7560;51.364;12.384;2022-10-23T08:18:27;14.40;99.90
14934;DHT22;7560;51.364;12.384;2022-10-23T08:23:29;14.50;99.90
14934;DHT22;7560;51.364;12.384;2022-10-23T08:28:31;14.70;99.90
14934;DHT22;7560;51.364;12.384;2022-10-23T08:33:33;14.70;99.90
14934;DHT22;7560;51.364;12.384;2022-10-23T08:38:35;14.80;99.90
14934;DHT22;7560;51.364;12.384;2022-10-23T08:43:42;15.00;99.90
14934;DHT22;7560;51.364;12.384;2022-10-23T08:48:48;15.20;99.90
14934;DHT22;7560;51.364;12.384;2022-10-23T08:53:56;15.40;99.90
14934;DHT22;7560;51.364;12.384;2022-10-23T08:59:02;15.60;99.90
14934;DHT22;7560;51.364;12.384;2022-10-23T09:04:06;15.80;99.90
14934;DHT22;7560;51.364;12.384;2022-10-23T09:19:31;16.50;99.90
14934;DHT22;7560;51.364;12.384;2022-10-23T09:24:32;16.60;99.90
14934;DHT22;7560;51.364;12.384;2022-10-23T09:29:34;16.60;99.90
14934;DHT22;7560;51.364;12.384;2022-10-23T09:34:36;16.90;99.90
14934;DHT22;7560;51.364;12.384;2022-10-23T09:39:38;17.00;99.90
14934;DHT22;7560;51.364;12.384;2022-10-23T09:44:48;17.00;99.90
14934;DHT22;7560;51.364;12.384;2022-10-23T09:49:52;17.00;99.90
14934;DHT22;7560;51.364;12.384;2022-10-23T09:54:56;17.20;99.90
14934;DHT22;7560;51.364;12.384;2022-10-23T10:05:25;17.30;99.90
14934;DHT22;7560;51.364;12.384;2022-10-23T10:10:34;17.30;99.90
14934;DHT22;7560;51.364;12.384;2022-10-23T10:15:51;17.20;99.90
14934;DHT22;7560;51.364;12.384;2022-10-23T10:26:42;17.10;99.90
14934;DHT22;7560;51.364;12.384;2022-10-23T10:32:05;17.10;99.90
14934;DHT22;7560;51.364;12.384;2022-10-23T10:42:37;16.90;99.90
14934;DHT22;7560;51.364;12.384;2022-10-23T11:03:48;17.30;99.90
14934;DHT22;7560;51.364;12.384;2022-10-23T11:08:53;17.50;99.90
14934;DHT22;7560;51.364;12.384;2022-10-23T11:14:26;17.50;99.90
14934;DHT22;7560;51.364;12.384;2022-10-23T11:19:48;17.80;99.90
14934;DHT22;7560;51.364;12.384;2022-10-23T11:25:06;18.10;99.90
14934;DHT22;7560;51.364;12.384;2022-10-23T11:30:24;18.30;99.90
14934;DHT22;7560;51.364;12.384;2022-10-23T11:40:57;18.80;99.90
14934;DHT22;7560;51.364;12.384;2022-10-23T11:46:13;18.90;99.90
14934;DHT22;7560;51.364;12.384;2022-10-23T11:51:31;19.10;99.90
14934;DHT22;7560;51.364;12.384;2022-10-23T11:56:33;19.30;99.90
14934;DHT22;7560;51.364;12.384;2022-10-23T12:01:44;19.40;99.90
14934;DHT22;7560;51.364;12.384;2022-10-23T12:06:52;19.50;99.90
14934;DHT22;7560;51.364;12.384;2022-10-23T12:12:03;19.40;99.90
14934;DHT22;7560;51.364;12.384;2022-10-23T12:22:30;19.90;99.90
14934;DHT22;7560;51.364;12.384;2022-10-23T12:27:54;20.30;99.90
14934;DHT22;7560;51.364;12.384;2022-10-23T12:33:33;20.40;99.90
14934;DHT22;7560;51.364;12.384;2022-10-23T12:38:44;20.20;99.90
14934;DHT22;7560;51.364;12.384;2022-10-23T12:43:53;20.40;99.90
14934;DHT22;7560;51.364;12.384;2022-10-23T12:48:57;20.60;99.90
14934;DHT22;7560;51.364;12.384;2022-10-23T12:54:00;20.70;99.90
14934;DHT22;7560;51.364;12.384;2022-10-23T12:59:04;20.70;99.90
14934;DHT22;7560;51.364;12.384;2022-10-23T13:04:30;20.60;99.90
14934;DHT22;7560;51.364;12.384;2022-10-23T13:09:39;20.50;99.90
14934;DHT22;7560;51.364;12.384;2022-10-23T13:14:55;20.40;99.90
14934;DHT22;7560;51.364;12.384;2022-10-23T13:20:08;20.40;99.90
14934;DHT22;7560;51.364;12.384;2022-10-23T13:25:31;20.40;99.90
14934;DHT22;7560;51.364;12.384;2022-10-23T13:30:37;20.30;99.90
14934;DHT22;7560;51.364;12.384;2022-10-23T13:35:38;20.30;99.90
14934;DHT22;7560;51.364;12.384;2022-10-23T13:40:40;20.30;99.90
14934;DHT22;7560;51.364;12.384;2022-10-23T13:45:42;20.20;99.90
14934;DHT22;7560;51.364;12.384;2022-10-23T13:50:44;20.00;99.90
14934;DHT22;7560;51.364;12.384;2022-10-23T13:55:49;19.80;99.90
14934;DHT22;7560;51.364;12.384;2022-10-23T14:00:57;19.60;99.90
14934;DHT22;7560;51.364;12.384;2022-10-23T14:05:59;19.60;99.90
14934;DHT22;7560;51.364;12.384;2022-10-23T14:11:01;19.50;99.90
14934;DHT22;7560;51.364;12.384;2022-10-23T14:16:04;19.50;99.90
14934;DHT22;7560;51.364;12.384;2022-10-23T14:21:08;19.40;99.90
14934;DHT22;7560;51.364;12.384;2022-10-23T14:26:13;19.30;99.90
14934;DHT22;7560;51.364;12.384;2022-10-23T14:31:16;19.20;99.90
14934;DHT22;7560;51.364;12.384;2022-10-23T14:36:19;19.10;99.90
14934;DHT22;7560;51.364;12.384;2022-10-23T14:41:20;19.00;99.90
14934;DHT22;7560;51.364;12.384;2022-10-23T14:46:23;18.90;99.90
14934;DHT22;7560;51.364;12.384;2022-10-23T14:51:27;18.80;99.90
14934;DHT22;7560;51.364;12.384;2022-10-23T14:56:31;18.60;99.90
14934;DHT22;7560;51.364;12.384;2022-10-23T15:01:36;18.50;99.90
14934;DHT22;7560;51.364;12.384;2022-10-23T15:06:45;18.40;99.90
14934;DHT22;7560;51.364;12.384;2022-10-23T15:11:47;18.40;99.90
14934;DHT22;7560;51.364;12.384;2022-10-23T15:16:49;18.20;99.90
14934;DHT22;7560;51.364;12.384;2022-10-23T15:21:51;18.10;99.90
14934;DHT22;7560;51.364;12.384;2022-10-23T15:26:53;18.10;99.90
14934;DHT22;7560;51.364;12.384;2022-10-23T15:31:57;18.00;99.90
14934;DHT22;7560;51.364;12.384;2022-10-23T15:36:59;18.10;99.90
14934;DHT22;7560;51.364;12.384;2022-10-23T15:42:04;18.00;99.90
14934;DHT22;7560;51.364;12.384;2022-10-23T15:47:06;17.90;99.90
14934;DHT22;7560;51.364;12.384;2022-10-23T15:52:09;17.80;99.90
14934;DHT22;7560;51.364;12.384;2022-10-23T15:57:15;17.80;99.90
14934;DHT22;7560;51.364;12.384;2022-10-23T16:02:17;17.80;99.90
14934;DHT22;7560;51.364;12.384;2022-10-23T16:07:19;17.70;99.90
14934;DHT22;7560;51.364;12.384;2022-10-23T16:12:20;17.70;99.90
14934;DHT22;7560;51.364;12.384;2022-10-23T16:17:22;17.70;99.90
14934;DHT22;7560;51.364;12.384;2022-10-23T16:22:24;17.70;99.90
14934;DHT22;7560;51.364;12.384;2022-10-23T16:27:27;17.60;99.90
14934;DHT22;7560;51.364;12.384;2022-10-23T16:32:29;17.60;99.90
14934;DHT22;7560;51.364;12.384;2022-10-23T16:37:31;17.50;99.90
14934;DHT22;7560;51.364;12.384;2022-10-23T16:42:33;17.40;99.90
14934;DHT22;7560;51.364;12.384;2022-10-23T16:47:35;17.10;99.90
14934;DHT22;7560;51.364;12.384;2022-10-23T16:52:37;16.90;99.90
14934;DHT22;7560;51.364;12.384;2022-10-23T16:57:38;16.80;99.90
14934;DHT22;7560;51.364;12.384;2022-10-23T17:02:40;16.70;99.90
14934;DHT22;7560;51.364;12.384;2022-10-23T17:07:42;16.70;99.90
14934;DHT22;7560;51.364;12.384;2022-10-23T17:12:44;16.60;99.90
14934;DHT22;7560;51.364;12.384;2022-10-23T17:17:46;16.40;99.90
14934;DHT22;7560;51.364;12.384;2022-10-23T17:22:47;16.30;99.90
14934;DHT22;7560;51.364;12.384;2022-10-23T17:27:49;16.00;99.90
14934;DHT22;7560;51.364;12.384;2022-10-23T17:32:51;15.80;99.90
14934;DHT22;7560;51.364;12.384;2022-10-23T17:37:52;15.90;99.90
14934;DHT22;7560;51.364;12.384;2022-10-23T17:42:56;15.80;99.90
14934;DHT22;7560;51.364;12.384;2022-10-23T17:47:57;16.00;99.90
14934;DHT22;7560;51.364;12.384;2022-10-23T17:52:59;15.90;99.90
14934;DHT22;7560;51.364;12.384;2022-10-23T17:58:01;15.80;99.90
14934;DHT22;7560;51.364;12.384;2022-10-23T18:03:03;15.70;99.90
14934;DHT22;7560;51.364;12.384;2022-10-23T18:08:05;15.80;99.90
14934;DHT22;7560;51.364;12.384;2022-10-23T18:13:06;15.70;99.90
14934;DHT22;7560;51.364;12.384;2022-10-23T18:18:08;15.40;99.90
14934;DHT22;7560;51.364;12.384;2022-10-23T18:23:09;15.20;99.90
14934;DHT22;7560;51.364;12.384;2022-10-23T18:28:11;15.20;99.90
14934;DHT22;7560;51.364;12.384;2022-10-23T18:33:14;15.20;99.90
14934;DHT22;7560;51.364;12.384;2022-10-23T18:38:16;15.40;99.90
14934;DHT22;7560;51.364;12.384;2022-10-23T18:43:17;15.50;99.90
14934;DHT22;7560;51.364;12.384;2022-10-23T18:48:40;15.70;99.90
14934;DHT22;7560;51.364;12.384;2022-10-23T18:53:42;16.10;99.90
14934;DHT22;7560;51.364;12.384;2022-10-23T18:58:48;16.10;99.90
14934;DHT22;7560;51.364;12.384;2022-10-23T19:03:50;16.20;99.90
14934;DHT22;7560;51.364;12.384;2022-10-23T19:08:52;16.20;99.90
14934;DHT22;7560;51.364;12.384;2022-10-23T19:13:54;16.30;99.90
14934;DHT22;7560;51.364;12.384;2022-10-23T19:18:59;16.30;99.90
14934;DHT22;7560;51.364;12.384;2022-10-23T19:24:05;16.40;99.90
14934;DHT22;7560;51.364;12.384;2022-10-23T19:29:10;16.40;99.90
14934;DHT22;7560;51.364;12.384;2022-10-23T19:34:13;16.40;99.90
14934;DHT22;7560;51.364;12.384;2022-10-23T19:39:15;16.40;99.90
14934;DHT22;7560;51.364;12.384;2022-10-23T19:44:18;16.40;99.90
14934;DHT22;7560;51.364;12.384;2022-10-23T19:49:20;16.40;99.90
14934;DHT22;7560;51.364;12.384;2022-10-23T19:54:24;16.40;99.90
14934;DHT22;7560;51.364;12.384;2022-10-23T19:59:25;16.40;99.90
14934;DHT22;7560;51.364;12.384;2022-10-23T20:04:28;16.30;99.90
14934;DHT22;7560;51.364;12.384;2022-10-23T20:09:29;16.20;99.90
14934;DHT22;7560;51.364;12.384;2022-10-23T20:14:31;16.10;99.90
14934;DHT22;7560;51.364;12.384;2022-10-23T20:19:33;16.10;99.90
14934;DHT22;7560;51.364;12.384;2022-10-23T20:24:35;16.20;99.90
14934;DHT22;7560;51.364;12.384;2022-10-23T20:29:37;16.00;99.90
14934;DHT22;7560;51.364;12.384;2022-10-23T20:34:38;16.20;99.90
14934;DHT22;7560;51.364;12.384;2022-10-23T20:39:40;16.30;99.90
14934;DHT22;7560;51.364;12.384;2022-10-23T20:44:43;16.30;99.90
14934;DHT22;7560;51.364;12.384;2022-10-23T20:49:45;16.20;99.90
14934;DHT22;7560;51.364;12.384;2022-10-23T20:54:48;16.20;99.90
14934;DHT22;7560;51.364;12.384;2022-10-23T20:59:49;16.10;99.90
14934;DHT22;7560;51.364;12.384;2022-10-23T21:04:53;16.00;99.90
14934;DHT22;7560;51.364;12.384;2022-10-23T21:09:54;16.00;99.90
14934;DHT22;7560;51.364;12.384;2022-10-23T21:14:56;15.90;99.90
14934;DHT22;7560;51.364;12.384;2022-10-23T21:19:58;15.70;99.90
14934;DHT22;7560;51.364;12.384;2022-10-23T21:25:00;15.70;99.90
14934;DHT22;7560;51.364;12.384;2022-10-23T21:30:02;15.60;99.90
14934;DHT22;7560;51.364;12.384;2022-10-23T21:35:07;15.50;99.90
14934;DHT22;7560;51.364;12.384;2022-10-23T21:40:09;15.50;99.90
14934;DHT22;7560;51.364;12.384;2022-10-23T21:45:11;15.40;99.90
14934;DHT22;7560;51.364;12.384;2022-10-23T21:50:13;15.40;99.90
14934;DHT22;7560;51.364;12.384;2022-10-23T21:55:15;15.40;99.90
14934;DHT22;7560;51.364;12.384;2022-10-23T22:00:16;15.40;99.90
14934;DHT22;7560;51.364;12.384;2022-10-23T22:05:18;15.30;99.90
14934;DHT22;7560;51.364;12.384;2022-10-23T22:10:20;15.30;99.90
14934;DHT22;7560;51.364;12.384;2022-10-23T22:15:21;15.30;99.90
14934;DHT22;7560;51.364;12.384;2022-10-23T22:20:23;15.20;99.90
14934;DHT22;7560;51.364;12.384;2022-10-23T22:25:25;15.10;99.90
14934;DHT22;7560;51.364;12.384;2022-10-23T22:30:26;15.10;99.90
14934;DHT22;7560;51.364;12.384;2022-10-23T22:35:29;15.10;99.90
14934;DHT22;7560;51.364;12.384;2022-10-23T22:40:31;15.10;99.90
14934;DHT22;7560;51.364;12.384;2022-10-23T22:45:36;15.00;99.90
14934;DHT22;7560;51.364;12.384;2022-10-23T22:50:37;15.00;99.90
14934;DHT22;7560;51.364;12.384;2022-10-23T22:55:42;14.90;99.90
14934;DHT22;7560;51.364;12.384;2022-10-23T23:00:44;14.80;99.90
14934;DHT22;7560;51.364;12.384;2022-10-23T23:05:46;14.70;99.90
14934;DHT22;7560;51.364;12.384;2022-10-23T23:10:53;14.50;99.90
14934;DHT22;7560;51.364;12.384;2022-10-23T23:15:55;14.40;99.90
14934;DHT22;7560;51.364;12.384;2022-10-23T23:21:04;14.30;99.90
14934;DHT22;7560;51.364;12.384;2022-10-23T23:26:06;14.20;99.90
14934;DHT22;7560;51.364;12.384;2022-10-23T23:31:20;14.20;99.90
14934;DHT22;7560;51.364;12.384;2022-10-23T23:36:24;14.20;99.90
14934;DHT22;7560;51.364;12.384;2022-10-23T23:41:27;14.20;99.90
14934;DHT22;7560;51.364;12.384;2022-10-23T23:46:29;14.10;99.90
14934;DHT22;7560;51.364;12.384;2022-10-23T23:51:31;14.10;99.90
14934;DHT22;7560;51.364;12.384;2022-10-23T23:56:32;14.00;99.90
